Terminal Aerodrome Forecast
Issued by NWS

Home | Current Version | Previous Version | Text Only | Print | Product List | Glossary On
Versions: 1 2 3 4 5 6 7 8 9 10 11 12 13 14 15 16 17 18 19
000
FTUS41 KBOX 231415 AAA
TAFACK
TAF AMD
KACK 231415Z 2314/2412 23010KT 6SM BR VCSH BKN014 OVC110
     FM231600 22010KT 6SM BR BKN010
     FM232100 23008KT 3SM BR SCT015 SCT060
     FM240300 28006KT 5SM BR FEW060
     FM240600 33007KT P6SM FEW080=

USA.gov is the U.S. government's official web portal to all federal, state and local government web resources and services.